Time;durP1;ratioP1;P1;durP2;ratioP2;P2;SDS_P1;SDS_P2;PMS_P1;PMS_P2;Temp;Humidity;BMP_temperature;BMP_pressure;BME280_temperature;BME280_humidity;BME280_pressure;Samples;Min_cycle;Max_cycle;Signal;HPM_P1;HPM_P2
2022/03/12 00:02:16;;;;;;;0.20;0.20;;;;;;;20.09;31.12;101088.97;5111066;28;20332;-29
2022/03/12 00:04:44;;;;;;;0.20;0.20;;;;;;;20.08;31.30;101087.31;5114194;28;20054;-28
2022/03/12 00:07:12;;;;;;;0.20;0.20;;;;;;;20.08;31.44;101093.69;5112837;28;20051;-31
2022/03/12 00:09:38;;;;;;;0.20;0.20;;;;;;;20.09;31.23;101080.69;5111600;27;20118;-31
2022/03/12 00:12:04;;;;;;;0.20;0.20;;;;;;;20.08;31.05;101088.16;5113974;28;20120;-30
2022/03/12 00:14:33;;;;;;;0.20;0.20;;;;;;;20.08;31.22;101085.41;5116626;28;20484;-30
2022/03/12 00:16:58;;;;;;;0.17;0.17;;;;;;;20.08;31.18;101101.97;5111833;28;20058;-30
2022/03/12 00:19:24;;;;;;;0.20;0.20;;;;;;;20.08;31.12;101088.16;5114515;28;20044;-31
2022/03/12 00:21:50;;;;;;;0.20;0.20;;;;;;;20.07;31.22;101093.94;5111525;28;20316;-34
2022/03/12 00:24:17;;;;;;;0.20;0.20;;;;;;;20.07;31.30;101093.94;5111729;27;20593;-31
2022/03/12 00:26:46;;;;;;;0.20;0.20;;;;;;;20.09;31.34;101088.97;5102644;28;20431;-34
2022/03/12 00:29:14;;;;;;;0.20;0.20;;;;;;;20.08;31.05;101099.22;5115305;28;20046;-34
2022/03/12 00:31:41;;;;;;;0.20;0.20;;;;;;;20.08;31.21;101098.38;5112542;28;20036;-33
2022/03/12 00:34:07;;;;;;;0.20;0.20;;;;;;;20.06;31.26;101090.34;5113677;28;20090;-32
2022/03/12 00:36:33;;;;;;;0.13;0.13;;;;;;;20.08;31.20;101099.22;5113001;28;20044;-31
2022/03/12 00:38:59;;;;;;;0.20;0.20;;;;;;;20.05;31.12;101108.88;5117366;28;20062;-32
2022/03/12 00:41:25;;;;;;;0.20;0.20;;;;;;;20.07;31.23;101102.25;5113112;28;20509;-31
2022/03/12 00:43:52;;;;;;;0.20;0.20;;;;;;;20.06;31.19;101098.66;5116805;28;20047;-29
2022/03/12 00:46:19;;;;;;;0.20;0.20;;;;;;;20.07;31.36;101100.31;5114986;28;20054;-28
2022/03/12 00:48:45;;;;;;;0.10;0.10;;;;;;;20.08;31.42;101112.19;5102183;28;20044;-30
2022/03/12 00:51:11;;;;;;;0.20;0.20;;;;;;;20.08;31.29;101109.41;5113083;28;20449;-31
2022/03/12 00:53:39;;;;;;;0.20;0.20;;;;;;;20.08;31.21;101117.72;5115168;28;20043;-31
2022/03/12 00:56:05;;;;;;;0.15;0.15;;;;;;;20.07;31.12;101108.59;5110874;28;20083;-32
2022/03/12 00:58:31;;;;;;;0.10;0.10;;;;;;;20.07;31.32;101103.06;5102591;28;20168;-32
2022/03/12 01:00:57;;;;;;;0.20;0.20;;;;;;;20.08;31.25;101115.81;5109250;28;20059;-30
2022/03/12 01:03:23;;;;;;;0.20;0.20;;;;;;;20.07;31.12;101116.06;5112051;28;20466;-31
2022/03/12 01:05:53;;;;;;;0.20;0.20;;;;;;;20.06;31.19;101106.94;5114561;28;20046;-35
2022/03/12 01:08:20;;;;;;;0.20;0.20;;;;;;;20.06;31.35;101112.47;5113860;28;20048;-28
2022/03/12 01:10:46;;;;;;;0.20;0.20;;;;;;;20.07;31.22;101113.31;5100848;28;20602;-30
2022/03/12 01:13:12;;;;;;;0.20;0.20;;;;;;;20.05;31.23;101117.19;5113750;28;20051;-28
2022/03/12 01:15:39;;;;;;;0.20;0.20;;;;;;;20.07;31.05;101113.31;5099534;28;20138;-29
2022/03/12 01:18:11;;;;;;;0.20;0.20;;;;;;;20.06;31.33;101109.72;5112837;28;20051;-28
2022/03/12 01:20:37;;;;;;;0.20;0.20;;;;;;;20.06;31.38;101115.25;5096917;28;20131;-31
2022/03/12 01:23:04;;;;;;;0.20;0.20;;;;;;;20.05;31.35;101119.94;5111727;27;20061;-31
2022/03/12 01:25:30;;;;;;;0.20;0.20;;;;;;;20.07;31.31;101116.88;5110743;28;20089;-28
2022/03/12 01:27:55;;;;;;;0.20;0.20;;;;;;;20.06;31.18;101115.25;5111813;28;20043;-30
2022/03/12 01:30:30;;;;;;;0.20;0.20;;;;;;;20.06;31.47;101120.78;5111086;28;20074;-32
2022/03/12 01:32:57;;;;;;;0.20;0.20;;;;;;;20.06;31.31;101112.47;5099674;28;20205;-33
2022/03/12 01:35:24;;;;;;;0.20;0.20;;;;;;;20.06;31.05;101118.00;5116255;28;20051;-34
2022/03/12 01:37:50;;;;;;;0.20;0.20;;;;;;;20.04;31.40;101121.06;5101301;28;20059;-32
2022/03/12 01:40:16;;;;;;;0.20;0.20;;;;;;;20.05;31.44;101127.41;5113499;28;20622;-30
2022/03/12 01:42:43;;;;;;;0.20;0.20;;;;;;;20.05;31.10;101119.94;5115259;28;20063;-34
2022/03/12 01:45:12;;;;;;;0.20;0.20;;;;;;;20.06;31.05;101123.53;5085529;28;20051;-32
2022/03/12 01:47:38;;;;;;;0.10;0.10;;;;;;;20.06;31.24;101131.84;5117520;28;20070;-35
2022/03/12 01:50:05;;;;;;;0.20;0.20;;;;;;;20.07;31.46;101127.13;5111808;28;20048;-38
2022/03/12 01:52:31;;;;;;;0.20;0.20;;;;;;;20.05;31.32;101122.72;5112405;28;20447;-33
2022/03/12 01:54:57;;;;;;;0.20;0.20;;;;;;;20.04;31.30;101123.84;5108118;28;20079;-35
2022/03/12 01:57:22;;;;;;;0.10;0.10;;;;;;;20.04;31.30;101123.84;5113881;28;20050;-30
2022/03/12 01:59:50;;;;;;;0.20;0.20;;;;;;;20.05;31.00;101119.94;5111763;28;20506;-32
2022/03/12 02:02:17;;;;;;;0.20;0.20;;;;;;;20.07;31.07;101132.66;5110367;28;20075;-30
2022/03/12 02:04:51;;;;;;;0.20;0.20;;;;;;;20.05;31.48;101132.94;5111233;28;20047;-35
2022/03/12 02:07:18;;;;;;;0.20;0.20;;;;;;;20.07;31.17;101125.19;5101785;28;20088;-32
2022/03/12 02:09:44;;;;;;;0.20;0.20;;;;;;;20.06;31.35;101131.84;5112702;28;20511;-32
2022/03/12 02:12:11;;;;;;;0.20;0.20;;;;;;;20.05;31.20;101131.00;5110884;28;20095;-32
2022/03/12 02:14:37;;;;;;;0.20;0.20;;;;;;;20.05;31.44;101130.19;5113042;28;20781;-29
2022/03/12 02:17:08;;;;;;;0.20;0.20;;;;;;;20.04;31.29;101136.81;5110066;28;20315;-31
2022/03/12 02:19:33;;;;;;;0.20;0.20;;;;;;;20.05;31.21;101136.53;5110779;28;20067;-31
2022/03/12 02:22:03;;;;;;;0.20;0.20;;;;;;;20.05;30.92;101132.94;5112450;27;20054;-29
2022/03/12 02:24:30;;;;;;;0.20;0.20;;;;;;;20.05;31.05;101138.47;5097793;28;20222;-33
2022/03/12 02:26:57;;;;;;;0.20;0.20;;;;;;;20.06;31.42;101131.84;5113099;28;20046;-28
2022/03/12 02:29:24;;;;;;;0.20;0.20;;;;;;;20.04;31.23;101134.06;5113553;28;20104;-29
2022/03/12 02:31:57;;;;;;;0.20;0.20;;;;;;;20.04;31.33;101137.66;5114007;27;20051;-30
2022/03/12 02:34:38;;;;;;;0.20;0.20;;;;;;;20.05;31.23;101144.00;5116059;28;20051;-30
2022/03/12 02:37:05;;;;;;;0.20;0.20;;;;;;;20.04;31.11;101143.19;5117290;28;20086;-31
2022/03/12 02:39:31;;;;;;;0.20;0.20;;;;;;;20.04;31.24;101145.94;5114721;28;20083;-29
2022/03/12 02:42:00;;;;;;;0.20;0.20;;;;;;;20.05;31.27;101138.47;5111812;28;20047;-33
2022/03/12 02:44:27;;;;;;;0.20;0.20;;;;;;;20.05;31.22;101138.47;5117026;28;20039;-29
2022/03/12 02:47:14;;;;;;;0.10;0.10;;;;;;;20.05;31.15;101144.84;5114297;28;20108;-31
2022/03/12 02:49:42;;;;;;;0.20;0.20;;;;;;;20.04;31.42;101139.59;5104370;28;20189;-30
2022/03/12 02:52:08;;;;;;;0.20;0.20;;;;;;;20.04;31.13;101139.59;5115718;28;20073;-35
2022/03/12 02:54:34;;;;;;;0.13;0.13;;;;;;;20.04;31.08;101143.19;5115563;28;20425;-33
2022/03/12 02:57:03;;;;;;;0.20;0.20;;;;;;;20.05;31.02;101141.25;5117529;28;20186;-30
2022/03/12 02:59:29;;;;;;;0.20;0.20;;;;;;;20.03;31.03;101138.78;5117788;28;20071;-30
2022/03/12 03:01:57;;;;;;;0.20;0.20;;;;;;;20.03;31.17;101138.78;5114827;28;20056;-31
2022/03/12 03:04:24;;;;;;;0.20;0.20;;;;;;;20.04;31.20;101134.06;5117362;28;20044;-32
2022/03/12 03:06:50;;;;;;;0.13;0.13;;;;;;;20.05;31.15;101141.25;5112579;28;20389;-30
2022/03/12 03:09:16;;;;;;;0.20;0.20;;;;;;;20.05;31.04;101146.78;5086240;28;20118;-29
2022/03/12 03:11:44;;;;;;;0.20;0.20;;;;;;;20.05;31.49;101147.59;5116061;28;20510;-28
2022/03/12 03:14:11;;;;;;;0.20;0.20;;;;;;;20.04;31.28;101129.34;5114730;28;20089;-29
2022/03/12 03:16:37;;;;;;;0.20;0.20;;;;;;;20.04;31.31;101143.19;5113937;28;20051;-29
2022/03/12 03:19:03;;;;;;;0.20;0.20;;;;;;;20.05;31.37;101153.13;5115208;28;20433;-29
2022/03/12 03:21:29;;;;;;;0.20;0.20;;;;;;;20.05;31.48;101144.00;5114020;27;20043;-31
2022/03/12 03:23:55;;;;;;;0.20;0.20;;;;;;;20.03;31.20;101152.59;5116856;28;20301;-32
2022/03/12 03:29:19;;;;;;;0.20;0.20;;;;;;;20.05;31.11;101155.06;5168997;27;20194;-28
2022/03/12 03:31:46;;;;;;;0.10;0.10;;;;;;;20.04;31.42;101161.72;5141259;27;20046;-31
2022/03/12 03:34:12;;;;;;;0.20;0.20;;;;;;;20.04;31.29;101173.59;5157978;27;20485;-28
2022/03/12 03:36:38;;;;;;;0.20;0.20;;;;;;;20.04;31.42;101161.72;5155399;27;20083;-28
2022/03/12 03:39:04;;;;;;;0.20;0.20;;;;;;;20.04;31.22;101158.94;5149324;27;20061;-30
2022/03/12 03:41:30;;;;;;;0.20;0.20;;;;;;;20.03;31.52;101158.13;5153835;27;20047;-28
2022/03/12 03:43:55;;;;;;;0.20;0.20;;;;;;;20.04;31.30;101156.19;5151192;27;20087;-30
2022/03/12 03:46:22;;;;;;;0.20;0.20;;;;;;;20.03;31.32;101155.34;5148723;27;20069;-29
2022/03/12 03:48:51;;;;;;;0.20;0.20;;;;;;;20.03;31.25;101158.13;5130714;27;20058;-31
2022/03/12 03:51:18;;;;;;;0.20;0.20;;;;;;;20.04;31.52;101157.00;5149693;27;20383;-32
2022/03/12 03:53:43;;;;;;;0.20;0.20;;;;;;;20.04;31.48;101161.72;5148306;27;20085;-32
2022/03/12 03:56:09;;;;;;;0.20;0.20;;;;;;;20.03;31.20;101171.09;5150507;27;20051;-34
2022/03/12 03:58:36;;;;;;;0.20;0.20;;;;;;;20.03;31.25;101169.19;5127136;27;20047;-33
2022/03/12 04:01:04;;;;;;;0.20;0.20;;;;;;;20.04;31.20;101181.06;5150052;27;20099;-31
2022/03/12 04:03:32;;;;;;;;;;;;;;;20.03;31.37;101188.53;5150160;27;20179;-31
2022/03/12 04:05:59;;;;;;;0.20;0.20;;;;;;;20.04;31.50;101187.41;5146976;27;19973;-31
2022/03/12 04:08:25;;;;;;;0.20;0.20;;;;;;;20.03;31.40;101187.69;5148475;27;20050;-31
2022/03/12 04:10:51;;;;;;;0.20;0.20;;;;;;;20.04;31.33;101195.72;5147194;27;20389;-30
2022/03/12 04:13:19;;;;;;;0.20;0.20;;;;;;;20.02;31.26;101194.31;5150453;27;20093;-30
2022/03/12 04:15:45;;;;;;;0.20;0.20;;;;;;;20.02;31.39;101195.16;5148143;27;20089;-32
2022/03/12 04:18:13;;;;;;;0.20;0.20;;;;;;;20.04;31.36;101198.47;5147163;27;20477;-29
2022/03/12 04:20:39;;;;;;;0.20;0.20;;;;;;;20.02;31.30;101200.69;5146359;27;20389;-31
2022/03/12 04:23:05;;;;;;;0.20;0.20;;;;;;;20.02;31.00;101208.97;5148101;27;20478;-31
2022/03/12 04:25:31;;;;;;;0.10;0.10;;;;;;;20.03;31.47;101207.88;5151841;27;20748;-30
2022/03/12 04:27:58;;;;;;;0.20;0.20;;;;;;;20.03;31.52;101199.59;5147405;27;20046;-30
2022/03/12 04:30:24;;;;;;;0.20;0.20;;;;;;;20.03;31.26;101207.03;5148984;27;20088;-32
2022/03/12 04:32:49;;;;;;;0.20;0.20;;;;;;;20.03;31.46;101212.56;5146819;27;20039;-37
2022/03/12 04:35:16;;;;;;;0.20;0.20;;;;;;;20.04;31.40;101214.25;5149642;27;20062;-29
2022/03/12 04:37:41;;;;;;;0.20;0.20;;;;;;;20.03;31.09;101213.41;5148865;27;20300;-29
2022/03/12 04:40:12;;;;;;;0.20;0.20;;;;;;;20.03;31.17;101210.66;5136369;27;20046;-31
2022/03/12 04:42:39;;;;;;;0.20;0.20;;;;;;;20.02;31.18;101219.19;5132605;27;20109;-34
2022/03/12 04:45:08;;;;;;;0.20;0.20;;;;;;;20.03;31.45;101216.19;5114669;27;20085;-31
2022/03/12 04:47:41;;;;;;;0.20;0.20;;;;;;;20.03;31.20;101218.09;5135656;27;20134;-32
2022/03/12 04:50:08;;;;;;;0.20;0.20;;;;;;;20.02;31.08;101220.03;5134031;27;20435;-31
2022/03/12 04:52:35;;;;;;;0.20;0.20;;;;;;;20.03;31.33;101230.00;5113824;27;20078;-34
2022/03/12 04:55:10;;;;;;;0.20;0.20;;;;;;;20.03;31.39;101221.72;5136352;27;20078;-30
2022/03/12 04:57:36;;;;;;;0.20;0.20;;;;;;;20.02;31.26;101233.84;5134837;27;20439;-33
2022/03/12 05:00:05;;;;;;;0.20;0.20;;;;;;;20.03;31.22;101218.94;5115437;27;20100;-32
2022/03/12 05:02:32;;;;;;;0.20;0.20;;;;;;;20.04;31.52;101222.53;5133127;27;20078;-31
2022/03/12 05:04:58;;;;;;;0.20;0.20;;;;;;;20.02;31.16;101233.84;5136295;27;20091;-32
2022/03/12 05:07:24;;;;;;;0.20;0.20;;;;;;;20.01;31.28;101231.38;5133350;27;20046;-31
2022/03/12 05:09:50;;;;;;;0.20;0.20;;;;;;;20.02;31.47;101230.25;5132062;27;20647;-29
2022/03/12 05:12:17;;;;;;;0.20;0.20;;;;;;;20.03;31.08;101241.06;5133806;27;20074;-32
2022/03/12 05:14:46;;;;;;;0.20;0.20;;;;;;;20.03;31.41;101234.69;5134718;27;20122;-31
2022/03/12 05:17:13;;;;;;;0.10;0.10;;;;;;;20.02;31.18;101238.56;5132477;27;20131;-30
2022/03/12 05:19:39;;;;;;;0.20;0.20;;;;;;;20.03;31.22;101242.97;5129953;27;20078;-32
2022/03/12 05:22:05;;;;;;;0.20;0.20;;;;;;;20.03;31.25;101249.34;5131440;27;20051;-28
2022/03/12 05:24:31;;;;;;;0.20;0.20;;;;;;;20.03;31.47;101248.50;5133102;27;20035;-29
2022/03/12 05:26:59;;;;;;;0.20;0.20;;;;;;;20.03;31.39;101235.53;5132652;27;20487;-29
2022/03/12 05:29:24;;;;;;;0.20;0.20;;;;;;;20.03;31.35;101241.06;5135499;27;20093;-30
2022/03/12 05:31:52;;;;;;;0.20;0.20;;;;;;;20.02;31.49;101249.63;5132168;27;20484;-31
2022/03/12 05:34:21;;;;;;;0.20;0.20;;;;;;;20.03;31.15;101248.50;5130672;27;20494;-31
2022/03/12 05:36:47;;;;;;;0.20;0.20;;;;;;;20.04;31.47;101250.19;5133159;27;20284;-31
2022/03/12 05:39:13;;;;;;;0.20;0.20;;;;;;;20.03;31.29;101252.13;5134333;27;20074;-32
2022/03/12 05:41:41;;;;;;;0.20;0.20;;;;;;;20.03;31.45;101252.13;5131535;27;20099;-29
2022/03/12 05:44:07;;;;;;;0.20;0.20;;;;;;;20.03;31.08;101252.13;5132282;27;20126;-29
2022/03/12 05:46:32;;;;;;;0.20;0.20;;;;;;;20.04;31.25;101247.41;5136664;27;20406;-29
2022/03/12 05:48:58;;;;;;;0.20;0.20;;;;;;;20.02;31.43;101249.63;5132263;27;20497;-33
2022/03/12 05:51:24;;;;;;;0.20;0.20;;;;;;;20.03;31.16;101251.25;5129693;27;20054;-32
2022/03/12 05:53:49;;;;;;;0.20;0.20;;;;;;;20.02;31.58;101242.16;5133573;27;20039;-32
2022/03/12 05:56:15;;;;;;;0.20;0.20;;;;;;;20.02;31.42;101246.84;5135315;27;20058;-28
2022/03/12 05:58:41;;;;;;;0.20;0.20;;;;;;;20.03;31.37;101246.59;5133070;27;20081;-31
2022/03/12 06:01:07;;;;;;;0.20;0.20;;;;;;;20.04;31.52;101251.00;5134051;27;20474;-31
2022/03/12 06:03:33;;;;;;;0.20;0.20;;;;;;;20.03;31.40;101248.50;5133884;27;20078;-31
2022/03/12 06:05:59;;;;;;;0.20;0.20;;;;;;;20.02;31.39;101250.44;5133368;27;20456;-31
2022/03/12 06:08:27;;;;;;;0.20;0.20;;;;;;;20.02;31.37;101253.19;5131857;27;20043;-29
2022/03/12 06:10:55;;;;;;;0.20;0.20;;;;;;;20.03;31.46;101251.25;5113739;27;20143;-31
2022/03/12 06:13:23;;;;;;;0.20;0.20;;;;;;;20.02;31.33;101255.97;5136144;27;20051;-31
2022/03/12 06:15:55;;;;;;;;;;;;;;;20.01;31.08;101251.56;5118036;27;20043;-32
2022/03/12 06:18:23;;;;;;;0.20;0.20;;;;;;;20.01;31.29;101257.09;5132296;27;19923;-34
2022/03/12 06:20:49;;;;;;;0.20;0.20;;;;;;;20.01;31.50;101254.31;5133862;27;20039;-31
2022/03/12 06:23:15;;;;;;;0.20;0.20;;;;;;;20.03;31.20;101259.56;5133497;27;20061;-32
2022/03/12 06:25:40;;;;;;;0.20;0.20;;;;;;;20.03;31.53;101267.84;5134881;27;20100;-31
2022/03/12 06:28:06;;;;;;;0.20;0.20;;;;;;;20.03;31.50;101274.25;5133035;27;20058;-31
2022/03/12 06:30:32;;;;;;;0.20;0.20;;;;;;;20.04;31.50;101258.47;5131163;27;20453;-32
2022/03/12 06:32:58;;;;;;;0.20;0.20;;;;;;;20.02;31.33;101261.50;5130457;27;20058;-32
2022/03/12 06:35:26;;;;;;;0.20;0.20;;;;;;;20.03;31.29;101259.56;5115420;27;20293;-32
2022/03/12 06:37:52;;;;;;;0.10;0.10;;;;;;;20.01;31.56;101254.31;5115910;27;20466;-31
2022/03/12 06:40:18;;;;;;;0.20;0.20;;;;;;;20.02;31.48;101255.97;5131811;27;20049;-31
2022/03/12 06:42:46;;;;;;;0.20;0.20;;;;;;;20.03;31.14;101256.78;5131720;27;20039;-33
2022/03/12 06:45:16;;;;;;;0.20;0.20;;;;;;;20.03;31.16;101248.50;5131301;27;20482;-32
2022/03/12 06:47:44;;;;;;;0.20;0.20;;;;;;;20.02;31.08;101258.72;5132247;27;20039;-32
2022/03/12 06:50:12;;;;;;;0.20;0.20;;;;;;;20.03;31.08;101254.03;5128291;27;20078;-29
2022/03/12 06:52:43;;;;;;;0.20;0.20;;;;;;;20.02;31.56;101255.97;5133283;27;20518;-30
2022/03/12 06:55:09;;;;;;;0.20;0.20;;;;;;;20.01;31.17;101257.09;5132848;27;20085;-31
2022/03/12 06:57:36;;;;;;;0.20;0.20;;;;;;;20.02;31.50;101258.72;5132396;27;20093;-30
2022/03/12 07:00:05;;;;;;;0.20;0.20;;;;;;;20.01;31.54;101273.66;5131359;27;20562;-29
2022/03/12 07:02:30;;;;;;;0.20;0.20;;;;;;;20.01;31.10;101265.38;5132329;27;20416;-31
2022/03/12 07:04:56;;;;;;;0.20;0.20;;;;;;;20.02;31.22;101272.56;5132036;27;20047;-32
2022/03/12 07:07:24;;;;;;;0.20;0.20;;;;;;;20.03;31.29;101273.38;5133419;27;20047;-29
2022/03/12 07:09:50;;;;;;;0.20;0.20;;;;;;;20.02;31.41;101263.44;5130673;27;20530;-30
2022/03/12 07:12:16;;;;;;;0.20;0.20;;;;;;;20.02;31.16;101260.66;5130063;27;20054;-29
2022/03/12 07:14:41;;;;;;;0.20;0.20;;;;;;;20.03;31.36;101265.09;5131266;27;20074;-32
2022/03/12 07:17:07;;;;;;;0.20;0.20;;;;;;;20.01;31.38;101262.59;5132453;27;20437;-32
2022/03/12 07:19:33;;;;;;;0.20;0.20;;;;;;;20.02;31.34;101268.97;5127606;27;20043;-32
2022/03/12 07:21:59;;;;;;;0.20;0.20;;;;;;;20.02;31.49;101272.56;5132424;27;20584;-31
2022/03/12 07:24:24;;;;;;;0.20;0.20;;;;;;;20.01;31.56;101270.09;5134693;27;20051;-30
2022/03/12 07:26:50;;;;;;;0.20;0.20;;;;;;;20.01;31.46;101279.19;5132093;27;20304;-31
2022/03/12 07:29:16;;;;;;;0.20;0.20;;;;;;;20.02;31.38;101271.72;5133898;27;20050;-30
2022/03/12 07:31:42;;;;;;;0.20;0.20;;;;;;;20.01;31.54;101281.97;5110237;27;20486;-32
2022/03/12 07:34:07;;;;;;;0.20;0.20;;;;;;;20.02;31.25;101285.56;5131014;27;20058;-32
2022/03/12 07:36:33;;;;;;;0.20;0.20;;;;;;;20.03;31.17;101293.59;5132840;27;20108;-33
2022/03/12 07:39:03;;;;;;;0.20;0.20;;;;;;;20.01;31.54;101301.31;5131146;27;20058;-32
2022/03/12 07:41:29;;;;;;;0.20;0.20;;;;;;;20.01;31.20;101304.06;5132405;27;20066;-30
2022/03/12 07:43:55;;;;;;;0.20;0.20;;;;;;;20.02;31.58;101307.66;5129960;27;20066;-31
2022/03/12 07:46:21;;;;;;;0.20;0.20;;;;;;;20.01;31.21;101312.38;5129062;27;20434;-32
2022/03/12 07:48:48;;;;;;;0.20;0.20;;;;;;;20.03;31.28;101323.16;5130335;27;20393;-32
2022/03/12 07:51:14;;;;;;;0.20;0.20;;;;;;;20.02;31.34;101327.84;5129316;27;20101;-30
2022/03/12 07:53:39;;;;;;;0.20;0.20;;;;;;;20.03;31.26;101323.16;5111448;27;20742;-29
2022/03/12 07:56:06;;;;;;;0.20;0.20;;;;;;;20.01;31.05;101337.25;5133738;27;20137;-29
2022/03/12 07:58:32;;;;;;;0.20;0.20;;;;;;;20.03;31.41;101326.75;5130628;27;20089;-31
2022/03/12 08:00:59;;;;;;;0.20;0.20;;;;;;;20.02;31.32;101329.78;5129177;27;20300;-31
2022/03/12 08:03:26;;;;;;;0.20;0.20;;;;;;;20.01;31.57;101326.19;5129299;27;20043;-31
2022/03/12 08:05:52;;;;;;;0.20;0.20;;;;;;;20.01;31.21;101325.38;5129912;27;20221;-30
2022/03/12 08:08:18;;;;;;;0.20;0.20;;;;;;;20.01;31.42;101325.38;5132195;27;20046;-29
2022/03/12 08:13:30;;;;;;;0.20;0.20;;;;;;;20.02;31.38;101329.78;5103403;27;20058;-30
2022/03/12 08:15:57;;;;;;;0.20;0.20;;;;;;;20.02;31.47;101338.09;5133451;27;20047;-30
2022/03/12 08:18:23;;;;;;;0.20;0.20;;;;;;;20.03;31.48;101348.03;5135196;27;20119;-32
2022/03/12 08:20:49;;;;;;;0.20;0.20;;;;;;;20.02;31.09;101344.44;5132725;27;20376;-33
2022/03/12 08:23:15;;;;;;;0.20;0.20;;;;;;;20.01;31.38;101353.84;5134278;27;20354;-30
2022/03/12 08:25:40;;;;;;;0.20;0.20;;;;;;;20.01;31.50;101364.06;5134957;27;20481;-29
2022/03/12 08:28:06;;;;;;;0.20;0.20;;;;;;;20.00;31.21;101357.72;5134259;27;20064;-28
2022/03/12 08:30:33;;;;;;;0.20;0.20;;;;;;;20.01;31.54;101366.84;5135893;27;20297;-32
2022/03/12 08:32:59;;;;;;;0.20;0.20;;;;;;;20.02;31.45;101365.72;5134670;27;20035;-29
2022/03/12 08:35:24;;;;;;;0.20;0.20;;;;;;;20.02;31.08;101362.97;5133507;27;20086;-31
2022/03/12 08:37:50;;;;;;;0.20;0.20;;;;;;;20.01;31.50;101364.91;5135024;27;20062;-30
2022/03/12 08:40:16;;;;;;;0.20;0.20;;;;;;;20.02;31.15;101357.44;5134279;27;20093;-32
2022/03/12 08:42:42;;;;;;;0.20;0.20;;;;;;;20.03;31.82;101364.63;5135257;27;20055;-29
2022/03/12 08:45:10;;;;;;;0.20;0.20;;;;;;;20.02;31.30;101369.31;5133127;27;20057;-30
2022/03/12 08:47:36;;;;;;;0.20;0.20;;;;;;;20.01;31.23;101364.91;5138388;27;20150;-32
2022/03/12 08:50:03;;;;;;;0.20;0.20;;;;;;;20.02;31.22;101387.84;5129035;27;20051;-32
2022/03/12 08:52:29;;;;;;;0.20;0.20;;;;;;;20.01;31.08;101391.72;5132301;27;20102;-29
2022/03/12 08:54:54;;;;;;;0.20;0.20;;;;;;;20.02;31.53;101390.63;5132831;27;20549;-31
2022/03/12 08:57:20;;;;;;;0.20;0.20;;;;;;;20.01;31.46;101395.31;5137429;27;20260;-32
2022/03/12 08:59:47;;;;;;;0.20;0.20;;;;;;;20.01;31.22;101387.03;5135836;27;20293;-32
2022/03/12 09:02:12;;;;;;;0.20;0.20;;;;;;;20.01;31.56;101389.78;5135963;27;20394;-30
2022/03/12 09:04:38;;;;;;;0.20;0.20;;;;;;;20.01;31.53;101386.19;5134086;27;20100;-28
2022/03/12 09:07:05;;;;;;;0.20;0.20;;;;;;;20.00;31.35;101384.53;5133693;27;20082;-31
2022/03/12 09:09:30;;;;;;;0.20;0.20;;;;;;;20.01;31.55;101383.44;5134969;27;21251;-32
2022/03/12 09:11:56;;;;;;;0.20;0.20;;;;;;;20.02;31.39;101393.38;5138067;27;20086;-32
2022/03/12 09:14:22;;;;;;;0.20;0.20;;;;;;;20.02;31.32;101390.63;5136543;27;20046;-31
2022/03/12 09:16:48;;;;;;;0.20;0.20;;;;;;;20.02;31.25;101396.13;5135825;27;20081;-31
2022/03/12 09:19:14;;;;;;;0.20;0.20;;;;;;;20.01;31.33;101398.06;5136812;27;20043;-30
2022/03/12 09:21:41;;;;;;;0.20;0.20;;;;;;;20.01;31.33;101388.97;5132298;27;20539;-31
2022/03/12 09:24:07;;;;;;;0.20;0.20;;;;;;;20.00;31.47;101393.66;5133808;27;20427;-30
2022/03/12 09:26:33;;;;;;;0.20;0.20;;;;;;;20.01;31.17;101387.03;5135870;27;20481;-28
2022/03/12 09:28:58;;;;;;;0.20;0.20;;;;;;;20.01;31.43;101388.97;5134152;27;20103;-29
2022/03/12 09:31:24;;;;;;;0.20;0.20;;;;;;;20.01;31.30;101378.72;5134114;27;20542;-28
2022/03/12 09:33:50;;;;;;;0.20;0.20;;;;;;;20.02;31.42;101385.09;5132109;27;20049;-31
2022/03/12 09:36:16;;;;;;;0.20;0.20;;;;;;;20.01;31.33;101387.03;5132795;27;20050;-30
2022/03/12 09:38:42;;;;;;;0.20;0.20;;;;;;;20.01;31.18;101392.56;5134948;27;20235;-32
2022/03/12 09:41:07;;;;;;;0.20;0.20;;;;;;;20.02;31.31;101393.38;5132826;27;20060;-31
2022/03/12 09:43:34;;;;;;;0.20;0.20;;;;;;;20.03;31.58;101395.03;5134376;27;20043;-30
2022/03/12 09:46:00;;;;;;;0.20;0.20;;;;;;;20.01;31.28;101395.31;5133470;27;20111;-32
2022/03/12 09:48:26;;;;;;;0.20;0.20;;;;;;;20.02;31.30;101393.38;5131922;27;20632;-32
2022/03/12 09:50:51;;;;;;;0.20;0.20;;;;;;;20.01;31.23;101389.78;5133674;27;20078;-32
2022/03/12 09:53:17;;;;;;;0.20;0.20;;;;;;;20.00;31.12;101377.06;5114162;27;20043;-31
2022/03/12 09:55:43;;;;;;;0.20;0.20;;;;;;;20.01;31.17;101378.72;5129791;27;20043;-31
2022/03/12 09:58:09;;;;;;;0.20;0.20;;;;;;;20.01;31.09;101389.78;5134217;27;20051;-33
2022/03/12 10:00:34;;;;;;;0.20;0.20;;;;;;;20.01;31.48;101377.91;5131690;27;20051;-37
2022/03/12 10:03:00;;;;;;;0.20;0.20;;;;;;;20.02;31.47;101390.63;5133961;27;20177;-29
2022/03/12 10:05:27;;;;;;;0.20;0.20;;;;;;;20.02;31.17;101393.38;5134793;27;20388;-31
2022/03/12 10:07:53;;;;;;;0.20;0.20;;;;;;;20.01;31.64;101397.25;5135618;27;20494;-34
2022/03/12 10:10:22;;;;;;;0.20;0.20;;;;;;;20.01;31.37;101392.56;5132449;27;20051;-35
2022/03/12 10:12:49;;;;;;;0.20;0.20;;;;;;;20.03;31.17;101390.34;5133968;27;20357;-33
2022/03/12 10:15:16;;;;;;;0.20;0.20;;;;;;;20.02;31.15;101387.84;5134199;27;20074;-30
2022/03/12 10:17:43;;;;;;;0.20;0.20;;;;;;;20.01;31.26;101375.97;5133536;27;20054;-29
2022/03/12 10:20:11;;;;;;;0.20;0.20;;;;;;;20.01;31.53;101384.25;5133430;27;20500;-30
2022/03/12 10:22:38;;;;;;;0.20;0.20;;;;;;;20.01;31.55;101377.91;5136045;27;20093;-31
2022/03/12 10:25:05;;;;;;;0.20;0.20;;;;;;;20.02;31.58;101388.66;5112065;27;20474;-31
2022/03/12 10:27:32;;;;;;;0.20;0.20;;;;;;;20.01;31.42;101387.03;5133728;27;20089;-29
2022/03/12 10:29:58;;;;;;;0.20;0.20;;;;;;;20.01;31.31;101378.72;5131934;27;20066;-30
2022/03/12 10:32:25;;;;;;;0.20;0.20;;;;;;;20.01;31.49;101373.19;5130471;27;20050;-29
2022/03/12 10:34:53;;;;;;;0.20;0.20;;;;;;;20.00;31.21;101371.53;5112532;27;20061;-29
2022/03/12 10:37:21;;;;;;;0.20;0.20;;;;;;;20.00;31.40;101366.00;5132132;27;20298;-32
2022/03/12 10:39:47;;;;;;;0.20;0.20;;;;;;;20.01;31.33;101370.44;5132007;27;20501;-34
2022/03/12 10:42:13;;;;;;;0.20;0.20;;;;;;;20.03;31.69;101379.28;5136516;27;20506;-30
2022/03/12 10:44:41;;;;;;;0.20;0.20;;;;;;;20.02;31.33;101369.31;5132476;27;20046;-31
2022/03/12 10:47:23;;;;;;;0.20;0.20;;;;;;;20.01;31.30;101373.19;5131556;27;20050;-30
2022/03/12 10:50:06;;;;;;;0.20;0.20;;;;;;;20.00;31.42;101368.78;5131450;27;20085;-29
2022/03/12 10:52:32;;;;;;;0.20;0.20;;;;;;;20.00;31.32;101376.25;5130909;27;20078;-31
2022/03/12 10:54:58;;;;;;;0.20;0.20;;;;;;;20.01;31.58;101373.19;5131774;27;20054;-31
2022/03/12 10:57:24;;;;;;;0.20;0.20;;;;;;;20.01;31.53;101367.66;5132556;27;20200;-29
2022/03/12 10:59:54;;;;;;;0.20;0.20;;;;;;;20.01;31.21;101367.66;5128454;27;20413;-32
2022/03/12 11:02:20;;;;;;;0.20;0.20;;;;;;;20.02;31.47;101385.09;5132353;27;20174;-32
2022/03/12 11:04:46;;;;;;;0.20;0.20;;;;;;;20.01;31.50;101377.91;5131743;27;20046;-34
2022/03/12 11:07:28;;;;;;;0.20;0.20;;;;;;;20.02;31.26;101394.19;5134541;27;20039;-30
2022/03/12 11:09:56;;;;;;;0.20;0.20;;;;;;;20.02;31.30;101388.66;5133287;27;20035;-29
2022/03/12 11:12:31;;;;;;;0.20;0.20;;;;;;;20.02;31.48;101388.66;5131781;27;20478;-30
2022/03/12 11:15:03;;;;;;;0.20;0.20;;;;;;;20.01;31.18;101373.19;5131269;27;20078;-29
2022/03/12 11:17:28;;;;;;;0.13;0.13;;;;;;;20.02;31.41;101385.09;5114924;27;20047;-31
2022/03/12 11:19:57;;;;;;;0.20;0.20;;;;;;;20.01;31.61;101375.13;5130513;27;20108;-33
2022/03/12 11:22:23;;;;;;;0.20;0.20;;;;;;;20.02;31.31;101376.78;5128279;27;20046;-35
2022/03/12 11:24:50;;;;;;;0.20;0.20;;;;;;;20.01;31.45;101378.72;5133398;27;20442;-32
2022/03/12 11:27:33;;;;;;;0.20;0.20;;;;;;;20.02;31.45;101385.09;5129741;27;20491;-31
2022/03/12 11:30:01;;;;;;;0.20;0.20;;;;;;;20.02;31.56;101376.78;5113322;27;20070;-32
2022/03/12 11:32:30;;;;;;;0.20;0.20;;;;;;;20.02;31.30;101379.56;5132730;27;20051;-32